createdAt,value
2022-12-12T00:02:11.792Z,14.93
2022-12-12T00:05:03.724Z,21.87
2022-12-12T00:07:53.493Z,20.27
2022-12-12T00:10:43.304Z,18.20
2022-12-12T00:13:34.646Z,17.10
2022-12-12T00:16:25.122Z,18.23
2022-12-12T00:19:14.541Z,17.87
2022-12-12T00:22:03.624Z,14.57
2022-12-12T00:24:52.936Z,16.30
2022-12-12T00:27:42.694Z,14.10
2022-12-12T00:30:34.478Z,16.23
2022-12-12T00:33:24.356Z,15.10
2022-12-12T00:36:13.727Z,15.03
2022-12-12T00:39:02.880Z,17.20
2022-12-12T00:41:51.798Z,15.23
2022-12-12T00:44:41.394Z,15.17
2022-12-12T00:47:32.327Z,15.37
2022-12-12T00:50:21.951Z,15.33
2022-12-12T00:53:11.731Z,15.77
2022-12-12T00:56:01.290Z,14.73
2022-12-12T00:58:51.598Z,13.83
2022-12-12T01:01:41.029Z,16.60
2022-12-12T01:04:32.015Z,19.93
2022-12-12T01:07:21.126Z,13.47
2022-12-12T01:10:11.912Z,15.73
2022-12-12T01:13:01.018Z,16.83
2022-12-12T01:15:50.602Z,15.77
2022-12-12T01:18:40.003Z,14.83
2022-12-12T01:21:31.244Z,16.60
2022-12-12T01:24:20.542Z,12.80
2022-12-12T01:27:09.977Z,16.47
2022-12-12T01:30:01.939Z,17.93
2022-12-12T01:32:51.355Z,17.03
2022-12-12T01:35:41.071Z,24.33
2022-12-12T01:38:32.025Z,18.87
2022-12-12T01:41:21.770Z,21.47
2022-12-12T01:44:40.674Z,16.83
2022-12-12T01:47:30.081Z,15.30
2022-12-12T01:50:19.332Z,14.43
2022-12-12T01:53:09.160Z,12.43
2022-12-12T01:56:02.653Z,14.57
2022-12-12T01:58:54.291Z,12.37
2022-12-12T02:01:44.187Z,14.03
2022-12-12T02:04:33.761Z,13.37
2022-12-12T02:07:22.810Z,14.20
2022-12-12T02:10:13.489Z,13.67
2022-12-12T02:13:08.080Z,17.27
2022-12-12T02:16:05.488Z,15.07
2022-12-12T02:18:58.028Z,22.67
2022-12-12T02:21:52.987Z,14.70
2022-12-12T02:25:12.487Z,14.20
2022-12-12T02:28:18.035Z,12.50
2022-12-12T02:31:15.523Z,11.63
2022-12-12T02:34:10.045Z,19.90
2022-12-12T02:37:04.480Z,11.60
2022-12-12T02:40:03.085Z,10.93
2022-12-12T02:43:00.279Z,11.20
2022-12-12T02:45:52.995Z,11.57
2022-12-12T02:48:51.102Z,8.77
2022-12-12T02:51:41.514Z,10.60
2022-12-12T02:54:30.424Z,9.43
2022-12-12T02:57:22.873Z,9.50
2022-12-12T03:00:14.775Z,10.70
2022-12-12T03:03:34.626Z,9.30
2022-12-12T03:06:54.532Z,9.60
2022-12-12T03:10:01.343Z,8.83
2022-12-12T03:13:00.718Z,8.70
2022-12-12T03:15:58.617Z,7.60
2022-12-12T03:18:59.476Z,8.43
2022-12-12T03:21:57.125Z,10.70
2022-12-12T03:24:52.045Z,9.93
2022-12-12T03:27:46.993Z,9.53
2022-12-12T03:30:40.604Z,7.63
2022-12-12T03:33:35.399Z,9.80
2022-12-12T03:36:28.358Z,7.80
2022-12-12T03:39:25.480Z,8.67
2022-12-12T03:42:20.007Z,7.57
2022-12-12T03:45:15.015Z,8.60
2022-12-12T03:48:11.632Z,9.10
2022-12-12T03:51:05.299Z,8.73
2022-12-12T03:54:00.893Z,8.93
2022-12-12T03:56:56.490Z,8.53
2022-12-12T03:59:50.131Z,8.87
2022-12-12T04:02:45.162Z,8.03
2022-12-12T04:06:01.773Z,8.60
2022-12-12T04:09:09.169Z,6.87
2022-12-12T04:12:24.232Z,8.17
2022-12-12T04:15:54.110Z,6.63
2022-12-12T04:18:50.782Z,7.20
2022-12-12T04:22:01.870Z,6.90
2022-12-12T04:24:59.399Z,7.77
2022-12-12T04:27:54.002Z,7.63
2022-12-12T04:30:43.406Z,7.60
2022-12-12T04:33:40.674Z,8.07
2022-12-12T04:36:33.420Z,8.73
2022-12-12T04:39:24.402Z,6.40
2022-12-12T04:42:19.198Z,9.37
2022-12-12T04:45:15.579Z,6.63
2022-12-12T04:48:07.984Z,9.57
2022-12-12T04:50:59.686Z,7.73
2022-12-12T04:53:53.935Z,6.10
2022-12-12T04:56:47.433Z,7.63
2022-12-12T04:59:38.103Z,8.90
2022-12-12T05:02:41.436Z,7.17
2022-12-12T05:05:34.336Z,7.93
2022-12-12T05:08:27.902Z,7.10
2022-12-12T05:11:18.878Z,7.50
2022-12-12T05:14:10.284Z,8.97
2022-12-12T05:17:04.531Z,8.20
2022-12-12T05:19:55.426Z,10.57
2022-12-12T05:22:45.054Z,14.98
2022-12-12T05:25:34.812Z,13.63
2022-12-12T05:28:24.233Z,12.50
2022-12-12T05:31:13.612Z,13.30
2022-12-12T05:34:03.245Z,11.10
2022-12-12T05:36:53.862Z,12.47
2022-12-12T05:39:43.503Z,11.00
2022-12-12T05:42:32.491Z,11.80
2022-12-12T05:45:21.599Z,11.83
2022-12-12T05:48:11.021Z,11.73
2022-12-12T05:51:01.550Z,11.83
2022-12-12T05:53:52.459Z,17.80
2022-12-12T05:56:41.976Z,13.20
2022-12-12T05:59:32.128Z,18.63
2022-12-12T06:02:21.082Z,16.00
2022-12-12T06:05:11.151Z,14.33
2022-12-12T06:08:00.930Z,20.00
2022-12-12T06:10:51.847Z,15.67
2022-12-12T06:13:41.413Z,19.00
2022-12-12T06:16:30.652Z,19.10
2022-12-12T06:19:20.618Z,20.10
2022-12-12T06:22:09.938Z,17.83
2022-12-12T06:24:59.416Z,16.53
2022-12-12T06:27:50.531Z,19.03
2022-12-12T06:30:39.927Z,18.30
2022-12-12T06:33:29.487Z,20.83
2022-12-12T06:36:24.539Z,17.73
2022-12-12T06:39:13.919Z,19.33
2022-12-12T06:42:03.477Z,12.00
2022-12-12T06:44:54.686Z,18.07
2022-12-12T06:47:43.499Z,16.70
2022-12-12T06:50:33.161Z,22.73
2022-12-12T06:53:22.321Z,14.70
2022-12-12T06:56:14.249Z,20.23
2022-12-12T06:59:03.896Z,17.27
2022-12-12T07:01:56.904Z,19.03
2022-12-12T07:04:46.074Z,19.87
2022-12-12T07:07:35.317Z,14.70
2022-12-12T07:10:24.830Z,17.90
2022-12-12T07:13:14.427Z,16.77
2022-12-12T07:16:04.081Z,18.13
2022-12-12T07:18:55.091Z,18.70
2022-12-12T07:21:44.532Z,19.83
2022-12-12T07:24:33.710Z,20.50
2022-12-12T07:27:23.862Z,21.80
2022-12-12T07:30:14.382Z,22.53
2022-12-12T07:33:04.289Z,23.83
2022-12-12T07:36:00.154Z,25.27
2022-12-12T07:38:49.259Z,22.80
2022-12-12T07:41:40.872Z,25.33
2022-12-12T07:44:30.091Z,25.77
2022-12-12T07:47:19.663Z,20.93
2022-12-12T07:50:10.037Z,23.60
2022-12-12T07:53:01.793Z,26.00
2022-12-12T07:55:51.097Z,30.23
2022-12-12T07:58:40.480Z,26.80
2022-12-12T08:01:30.876Z,26.17
2022-12-12T08:04:20.183Z,25.53
2022-12-12T08:07:09.870Z,25.90
2022-12-12T08:10:00.727Z,26.37
2022-12-12T08:12:50.157Z,23.23
2022-12-12T08:15:38.983Z,26.87
2022-12-12T08:18:28.226Z,25.73
2022-12-12T08:21:25.309Z,26.50
2022-12-12T08:24:17.676Z,27.07
2022-12-12T08:27:15.200Z,27.07
2022-12-12T08:30:06.143Z,29.60
2022-12-12T08:32:55.921Z,27.10
2022-12-12T08:35:45.824Z,27.40
2022-12-12T08:38:35.358Z,37.90
2022-12-12T08:41:25.506Z,35.17
2022-12-12T08:44:17.755Z,36.47
2022-12-12T08:47:07.183Z,29.33
2022-12-12T08:49:56.772Z,33.77
2022-12-12T08:52:45.723Z,32.10
2022-12-12T08:55:36.163Z,35.03
2022-12-12T08:58:25.271Z,34.97
2022-12-12T09:01:17.593Z,37.77
2022-12-12T09:04:06.448Z,35.57
2022-12-12T09:06:56.274Z,31.07
2022-12-12T09:09:45.584Z,35.13
2022-12-12T09:12:41.304Z,33.13
2022-12-12T09:15:31.053Z,36.33
2022-12-12T09:18:21.913Z,32.37
2022-12-12T09:21:11.212Z,34.23
2022-12-12T09:24:02.972Z,32.67
2022-12-12T09:26:52.103Z,31.03
2022-12-12T09:29:41.303Z,27.43
2022-12-12T09:32:30.790Z,32.33
2022-12-12T09:35:21.887Z,27.97
2022-12-12T09:38:14.607Z,29.23
2022-12-12T09:41:05.911Z,35.13
2022-12-12T09:43:58.584Z,28.23
2022-12-12T09:46:50.503Z,31.30
2022-12-12T09:49:47.012Z,33.67
2022-12-12T09:52:39.513Z,29.20
2022-12-12T09:55:37.723Z,33.43
2022-12-12T09:58:31.662Z,29.30
2022-12-12T10:01:27.309Z,27.80
2022-12-12T10:04:24.982Z,32.13
2022-12-12T10:07:21.796Z,29.53
2022-12-12T10:10:20.714Z,28.53
2022-12-12T10:13:17.231Z,27.87
2022-12-12T10:16:09.878Z,30.17
2022-12-12T10:19:08.819Z,32.40
2022-12-12T10:22:02.940Z,29.03
2022-12-12T10:24:56.315Z,33.70
2022-12-12T10:27:46.935Z,33.57
2022-12-12T10:30:45.055Z,39.77
2022-12-12T10:33:47.436Z,34.23
2022-12-12T10:36:52.368Z,34.60
2022-12-12T10:39:49.790Z,31.53
2022-12-12T10:42:47.583Z,33.17
2022-12-12T10:45:55.326Z,34.20
2022-12-12T10:48:46.472Z,34.03
2022-12-12T10:51:35.562Z,30.23
2022-12-12T10:54:28.237Z,30.20
2022-12-12T10:57:24.258Z,28.00
2022-12-12T11:00:19.767Z,28.67
2022-12-12T11:03:22.922Z,26.20
2022-12-12T11:06:16.603Z,21.73
2022-12-12T11:09:16.221Z,24.57
2022-12-12T11:12:13.803Z,26.73
2022-12-12T11:15:07.511Z,24.43
2022-12-12T11:18:04.283Z,30.97
2022-12-12T11:21:06.083Z,27.53
2022-12-12T11:23:57.805Z,22.73
2022-12-12T11:26:48.975Z,21.40
2022-12-12T11:29:44.447Z,21.73
2022-12-12T11:32:34.645Z,25.07
2022-12-12T11:35:27.257Z,25.33
2022-12-12T11:38:21.893Z,26.10
2022-12-12T11:41:12.936Z,23.80
2022-12-12T11:44:02.435Z,21.53
2022-12-12T11:46:51.559Z,23.40
2022-12-12T11:49:48.204Z,25.07
2022-12-12T11:52:37.774Z,22.27
2022-12-12T11:55:39.385Z,19.70
2022-12-12T11:58:33.467Z,22.03
2022-12-12T12:01:32.762Z,20.63
2022-12-12T12:04:34.766Z,20.43
2022-12-12T12:07:45.746Z,22.57
2022-12-12T12:10:50.231Z,20.07
2022-12-12T12:14:02.937Z,21.03
2022-12-12T12:16:59.086Z,23.87
2022-12-12T12:19:52.809Z,21.43
2022-12-12T12:22:54.087Z,23.03
2022-12-12T12:25:52.211Z,22.00
2022-12-12T12:29:31.660Z,24.90
2022-12-12T12:32:28.528Z,23.10
2022-12-12T12:35:23.961Z,22.50
2022-12-12T12:38:18.940Z,23.37
2022-12-12T12:41:18.804Z,22.80
2022-12-12T12:44:14.692Z,26.47
2022-12-12T12:47:06.391Z,22.07
2022-12-12T12:49:57.076Z,22.30
2022-12-12T12:52:54.166Z,23.70
2022-12-12T12:55:49.335Z,19.97
2022-12-12T12:58:45.837Z,23.23
2022-12-12T13:01:40.703Z,18.97
2022-12-12T13:04:31.903Z,21.40
2022-12-12T13:07:24.927Z,21.20
2022-12-12T13:10:19.897Z,24.00
2022-12-12T13:13:13.867Z,23.07
2022-12-12T13:16:07.318Z,19.83
2022-12-12T13:19:03.649Z,24.53
2022-12-12T13:21:55.085Z,24.60
2022-12-12T13:24:46.794Z,26.80
2022-12-12T13:27:38.995Z,22.37
2022-12-12T13:30:30.436Z,25.20
2022-12-12T13:33:31.073Z,23.20
2022-12-12T13:36:29.298Z,26.40
2022-12-12T13:39:28.818Z,26.27
2022-12-12T13:42:17.709Z,22.00
2022-12-12T13:45:36.402Z,26.47
2022-12-12T13:48:54.127Z,26.67
2022-12-12T13:51:43.946Z,26.63
2022-12-12T13:54:49.826Z,29.13
2022-12-12T13:58:00.161Z,23.70
2022-12-12T14:00:50.329Z,25.97
2022-12-12T14:03:40.348Z,25.83
2022-12-12T14:06:31.735Z,27.90
2022-12-12T14:09:31.235Z,25.50
2022-12-12T14:12:34.870Z,27.33
2022-12-12T14:15:29.342Z,25.77
2022-12-12T14:18:25.835Z,27.97
2022-12-12T14:21:19.168Z,31.07
2022-12-12T14:24:48.553Z,26.17
2022-12-12T14:28:03.863Z,29.43
2022-12-12T14:31:13.377Z,29.40
2022-12-12T14:34:17.953Z,27.00
2022-12-12T14:37:49.837Z,27.40
2022-12-12T14:40:46.998Z,31.27
2022-12-12T14:43:38.353Z,26.87
2022-12-12T14:46:27.271Z,31.30
2022-12-12T14:49:18.522Z,29.63
2022-12-12T14:52:08.156Z,31.23
2022-12-12T14:54:57.849Z,28.67
2022-12-12T14:57:50.552Z,29.87
2022-12-12T15:00:48.367Z,29.23
2022-12-12T15:03:41.036Z,26.83
2022-12-12T15:06:33.529Z,29.60
2022-12-12T15:09:29.594Z,28.37
2022-12-12T15:12:21.187Z,29.87
2022-12-12T15:15:26.771Z,29.27
2022-12-12T15:18:21.679Z,26.37
2022-12-12T15:21:10.680Z,28.40
2022-12-12T15:23:59.948Z,35.23
2022-12-12T15:26:50.109Z,28.73
2022-12-12T15:29:40.053Z,32.87
2022-12-12T15:32:31.142Z,28.80
2022-12-12T15:35:23.067Z,29.83
2022-12-12T15:38:13.761Z,26.90
2022-12-12T15:41:12.733Z,28.87
2022-12-12T15:44:04.903Z,27.87
2022-12-12T15:46:54.467Z,28.10
2022-12-12T15:49:46.497Z,30.07
2022-12-12T15:52:35.773Z,30.57
2022-12-12T15:55:25.171Z,31.30
2022-12-12T15:58:28.988Z,29.13
2022-12-12T16:01:21.027Z,32.93
2022-12-12T16:04:24.381Z,32.47
2022-12-12T16:07:22.723Z,29.37
2022-12-12T16:10:22.469Z,31.50
2022-12-12T16:13:24.299Z,31.00
2022-12-12T16:16:46.130Z,28.10
2022-12-12T16:19:39.426Z,31.17
2022-12-12T16:22:35.591Z,31.70
2022-12-12T16:25:26.149Z,31.43
2022-12-12T16:28:24.710Z,31.07
2022-12-12T16:31:17.725Z,32.13
2022-12-12T16:34:07.124Z,32.73
2022-12-12T16:36:55.965Z,31.33
2022-12-12T16:39:46.766Z,34.90
2022-12-12T16:42:37.896Z,33.50
2022-12-12T16:45:27.611Z,33.93
2022-12-12T16:48:17.366Z,28.10
2022-12-12T16:51:07.782Z,24.23
2022-12-12T16:53:57.263Z,33.27
2022-12-12T16:56:52.738Z,30.03
2022-12-12T16:59:42.149Z,29.03
2022-12-12T17:02:33.089Z,35.23
2022-12-12T17:05:24.517Z,33.53
2022-12-12T17:08:15.434Z,31.13
2022-12-12T17:11:10.233Z,35.50
2022-12-12T17:14:02.464Z,33.03
2022-12-12T17:16:51.689Z,32.97
2022-12-12T17:19:40.901Z,31.43
2022-12-12T17:22:31.159Z,33.83
2022-12-12T17:25:22.211Z,32.70
2022-12-12T17:28:12.318Z,35.23
2022-12-12T17:31:03.411Z,36.27
2022-12-12T17:33:52.750Z,32.60
2022-12-12T17:36:42.121Z,36.70
2022-12-12T17:39:31.679Z,34.77
2022-12-12T17:42:21.422Z,39.47
2022-12-12T17:45:12.761Z,38.63
2022-12-12T17:48:04.973Z,36.90
2022-12-12T17:50:59.086Z,35.13
2022-12-12T17:53:51.092Z,36.37
2022-12-12T17:56:41.253Z,33.63
2022-12-12T17:59:30.066Z,43.77
2022-12-12T18:02:19.406Z,32.17
2022-12-12T18:05:12.427Z,40.93
2022-12-12T18:08:01.438Z,38.43
2022-12-12T18:10:51.142Z,38.83
2022-12-12T18:13:40.821Z,35.50
2022-12-12T18:16:32.436Z,42.33
2022-12-12T18:19:22.621Z,66.73
2022-12-12T18:22:13.617Z,69.63
2022-12-12T18:25:03.190Z,40.47
2022-12-12T18:27:52.871Z,36.10
2022-12-12T18:30:41.602Z,29.37
2022-12-12T18:33:30.568Z,36.50
2022-12-12T18:36:20.988Z,36.60
2022-12-12T18:39:13.226Z,34.67
2022-12-12T18:42:02.035Z,36.47
2022-12-12T18:44:51.272Z,33.57
2022-12-12T18:47:40.487Z,38.63
2022-12-12T18:50:30.477Z,36.40
2022-12-12T18:53:19.807Z,36.33
2022-12-12T18:56:12.918Z,35.83
2022-12-12T18:59:03.312Z,36.57
2022-12-12T19:01:53.334Z,38.30
2022-12-12T19:04:45.080Z,36.17
2022-12-12T19:07:34.124Z,37.73
2022-12-12T19:10:23.144Z,33.53
2022-12-12T19:13:14.539Z,38.40
2022-12-12T19:16:06.593Z,40.33
2022-12-12T19:18:56.433Z,40.40
2022-12-12T19:21:45.854Z,40.97
2022-12-12T19:24:36.738Z,46.47
2022-12-12T19:27:25.646Z,42.53
2022-12-12T19:30:17.374Z,45.83
2022-12-12T19:33:06.824Z,40.50
2022-12-12T19:35:55.839Z,52.47
2022-12-12T19:38:45.613Z,43.40
2022-12-12T19:41:35.324Z,47.40
2022-12-12T19:44:25.198Z,49.87
2022-12-12T19:47:16.934Z,56.40
2022-12-12T19:50:07.035Z,60.73
2022-12-12T19:52:56.323Z,58.73
2022-12-12T19:55:48.311Z,63.90
2022-12-12T19:58:38.873Z,66.60
2022-12-12T20:01:30.591Z,63.20
2022-12-12T20:04:23.224Z,61.17
2022-12-12T20:07:12.713Z,60.93
2022-12-12T20:10:01.792Z,61.50
2022-12-12T20:12:58.168Z,63.87
2022-12-12T20:15:47.909Z,66.07
2022-12-12T20:18:37.441Z,62.63
2022-12-12T20:21:59.739Z,60.50
2022-12-12T20:24:38.692Z,70.00
2022-12-12T20:27:30.001Z,73.40
2022-12-12T20:30:19.852Z,69.00
2022-12-12T20:33:09.429Z,58.13
2022-12-12T20:36:02.749Z,70.07
2022-12-12T20:38:52.870Z,72.13
2022-12-12T20:41:42.803Z,69.90
2022-12-12T20:44:31.782Z,69.23
2022-12-12T20:47:22.560Z,68.93
2022-12-12T20:50:13.607Z,73.47
2022-12-12T20:53:02.679Z,70.77
2022-12-12T20:55:53.710Z,66.97
2022-12-12T20:58:43.102Z,72.40
2022-12-12T21:01:34.729Z,77.67
2022-12-12T21:04:24.482Z,74.40
2022-12-12T21:07:13.594Z,67.03
2022-12-12T21:10:02.751Z,74.77
2022-12-12T21:12:52.975Z,83.03
2022-12-12T21:15:42.374Z,75.03
2022-12-12T21:18:32.623Z,78.60
2022-12-12T21:21:22.664Z,66.27
2022-12-12T21:24:13.214Z,76.70
2022-12-12T21:27:02.653Z,76.07
2022-12-12T21:29:53.404Z,76.20
2022-12-12T21:32:42.711Z,71.37
2022-12-12T21:35:32.142Z,71.43
2022-12-12T21:38:23.544Z,75.77
2022-12-12T21:41:15.166Z,71.90
2022-12-12T21:44:04.476Z,76.57
2022-12-12T21:46:55.034Z,73.67
2022-12-12T21:49:44.817Z,73.47
2022-12-12T21:52:34.188Z,78.73
2022-12-12T21:55:23.585Z,69.20
2022-12-12T21:58:12.880Z,69.27
2022-12-12T22:01:08.872Z,59.90
2022-12-12T22:03:59.585Z,66.90
2022-12-12T22:06:48.660Z,62.33
2022-12-12T22:09:37.939Z,60.93
2022-12-12T22:12:27.906Z,64.77
2022-12-12T22:15:17.516Z,53.33
2022-12-12T22:18:07.095Z,58.50
2022-12-12T22:20:58.190Z,46.40
2022-12-12T22:23:48.218Z,47.23
2022-12-12T22:26:38.717Z,47.33
2022-12-12T22:29:27.928Z,41.13
2022-12-12T22:32:16.958Z,44.20
2022-12-12T22:35:06.474Z,35.40
2022-12-12T22:37:57.146Z,40.70
2022-12-12T22:40:55.827Z,40.67
2022-12-12T22:43:45.173Z,39.57
2022-12-12T22:46:39.217Z,41.27
2022-12-12T22:49:31.564Z,44.47
2022-12-12T22:52:20.930Z,40.87
2022-12-12T22:55:12.443Z,45.43
2022-12-12T22:58:01.969Z,45.10
2022-12-12T23:00:51.272Z,43.27
2022-12-12T23:03:40.951Z,42.00
2022-12-12T23:06:31.507Z,45.03
2022-12-12T23:09:21.653Z,43.50
2022-12-12T23:12:12.316Z,42.13
2022-12-12T23:15:01.805Z,45.77
2022-12-12T23:17:51.561Z,52.57
2022-12-12T23:20:41.053Z,49.40
2022-12-12T23:23:32.181Z,46.77
2022-12-12T23:26:22.876Z,45.60
2022-12-12T23:29:16.383Z,48.87
2022-12-12T23:32:07.515Z,53.20
2022-12-12T23:34:57.378Z,50.37
2022-12-12T23:37:46.958Z,49.80
2022-12-12T23:40:36.731Z,51.90
2022-12-12T23:43:26.441Z,48.07
2022-12-12T23:46:29.361Z,49.13
2022-12-12T23:49:20.025Z,53.50
2022-12-12T23:52:09.598Z,55.27
2022-12-12T23:54:58.660Z,48.90
2022-12-12T23:57:48.131Z,55.70
